Time,TemperatureF,DewpointF,PressureIn,WindDirection,WindDirectionDegrees,WindSpeedMPH,WindSpeedGustMPH,Humidity,HourlyPrecipIn,Conditions,Clouds,dailyrainin,SoftwareType,DateUTC
2013-01-11 00:02:00,7.0,6.0,-100.00,West,275,16.0,21.0,96,-99.99,,,0.00,,2013-01-11 07:02:00,
2013-01-11 00:11:00,7.0,6.0,-100.00,West,275,16.0,21.0,96,-99.99,,,0.00,,2013-01-11 07:11:00,
2013-01-11 06:52:00,2.0,0.0,-100.00,West,270,12.0,17.0,95,-99.99,,,0.00,,2013-01-11 13:52:00,
2013-01-11 07:03:00,2.0,0.0,-100.00,West,270,12.0,17.0,95,-99.99,,,0.00,,2013-01-11 14:03:00,
2013-01-11 07:12:00,2.0,0.0,-100.00,West,270,12.0,17.0,95,-99.99,,,0.00,,2013-01-11 14:12:00,
2013-01-11 08:12:00,1.0,0.0,-100.00,West,270,14.0,19.0,95,-99.99,,,0.00,,2013-01-11 15:12:00,
2013-01-11 08:23:00,1.0,0.0,-100.00,West,270,14.0,19.0,95,-99.99,,,0.00,,2013-01-11 15:23:00,
2013-01-11 08:32:00,1.0,0.0,-100.00,West,265,12.0,17.0,95,-99.99,,,0.00,,2013-01-11 15:32:00,
2013-01-11 08:42:00,1.0,0.0,-100.00,West,265,12.0,17.0,95,-99.99,,,0.00,,2013-01-11 15:42:00,
2013-01-11 08:52:00,1.0,0.0,-100.00,West,265,12.0,17.0,95,-99.99,,,0.00,,2013-01-11 15:52:00,
2013-01-11 10:00:00,0.0,-1.0,-100.00,West,270,14.0,19.0,95,-99.99,,,0.00,,2013-01-11 17:00:00,
2013-01-11 10:12:00,1.0,0.0,-100.00,West,275,12.0,19.0,95,-99.99,,,0.00,,2013-01-11 17:12:00,
2013-01-11 10:22:00,1.0,0.0,-100.00,West,275,12.0,19.0,95,-99.99,,,0.00,,2013-01-11 17:22:00,
2013-01-11 10:30:00,0.0,-1.0,-100.00,West,270,15.0,19.0,95,-99.99,,,0.00,,2013-01-11 17:30:00,
2013-01-11 10:33:00,0.0,-1.0,-100.00,West,270,14.0,19.0,95,-99.99,,,0.00,,2013-01-11 17:33:00,
2013-01-11 10:43:00,0.0,-1.0,-100.00,West,270,14.0,19.0,95,-99.99,,,0.00,,2013-01-11 17:43:00,
2013-01-11 10:53:00,0.0,-1.0,-100.00,West,270,14.0,19.0,95,-99.99,,,0.00,,2013-01-11 17:53:00,
2013-01-11 11:12:00,0.0,-1.0,-100.00,West,270,15.0,19.0,95,-99.99,,,0.00,,2013-01-11 18:12:00,
2013-01-11 11:23:00,0.0,-1.0,-100.00,West,270,15.0,19.0,95,-99.99,,,0.00,,2013-01-11 18:23:00,
2013-01-11 12:12:00,0.0,-1.0,-100.00,West,275,12.0,16.0,94,-99.99,,,0.00,,2013-01-11 19:12:00,
2013-01-11 12:22:00,0.0,-1.0,-100.00,West,275,12.0,16.0,94,-99.99,,,0.00,,2013-01-11 19:22:00,
2013-01-11 12:32:00,0.0,-1.0,-100.00,West,265,16.0,20.0,94,-99.99,,,-99.99,,2013-01-11 19:32:00,
2013-01-11 12:42:00,0.0,-1.0,-100.00,West,265,16.0,20.0,94,-99.99,,,-99.99,,2013-01-11 19:42:00,
2013-01-11 12:52:00,0.0,-1.0,-100.00,West,265,16.0,20.0,94,-99.99,,,-99.99,,2013-01-11 19:52:00,
2013-01-11 13:00:00,1.0,-1.0,-100.00,West,275,13.0,18.0,94,-99.99,,,0.00,,2013-01-11 20:00:00,
2013-01-11 13:12:00,1.0,-1.0,-100.00,West,265,12.0,17.0,94,-99.99,,,0.00,,2013-01-11 20:12:00,
2013-01-11 13:22:00,1.0,-1.0,-100.00,West,265,12.0,17.0,94,-99.99,,,0.00,,2013-01-11 20:22:00,
2013-01-11 13:30:00,1.0,0.0,-100.00,West,270,10.0,16.0,94,-99.99,,,0.00,,2013-01-11 20:30:00,
2013-01-11 13:32:00,1.0,-1.0,-100.00,West,275,13.0,18.0,94,-99.99,,,0.00,,2013-01-11 20:32:00,
2013-01-11 13:43:00,1.0,-1.0,-100.00,West,275,13.0,18.0,94,-99.99,,,0.00,,2013-01-11 20:43:00,
2013-01-11 13:52:00,1.0,-1.0,-100.00,West,275,13.0,18.0,94,-99.99,,,0.00,,2013-01-11 20:52:00,
2013-01-11 14:12:00,1.0,0.0,-100.00,West,270,10.0,16.0,94,-99.99,,,0.00,,2013-01-11 21:12:00,
2013-01-11 14:23:00,1.0,0.0,-100.00,West,270,10.0,16.0,94,-99.99,,,0.00,,2013-01-11 21:23:00,
2013-01-11 14:30:00,1.0,-1.0,-100.00,West,265,11.0,13.0,94,-99.99,,,0.00,,2013-01-11 21:30:00,
2013-01-11 15:12:00,1.0,-1.0,-100.00,West,265,11.0,13.0,94,-99.99,,,0.00,,2013-01-11 22:12:00,
2013-01-11 15:22:00,1.0,-1.0,-100.00,West,265,11.0,13.0,94,-99.99,,,0.00,,2013-01-11 22:22:00,
2013-01-11 16:12:00,0.0,-1.0,-100.00,West,275,9.0,12.0,94,-99.99,,,0.00,,2013-01-11 23:12:00,
2013-01-11 16:22:00,0.0,-1.0,-100.00,West,275,9.0,12.0,94,-99.99,,,0.00,,2013-01-11 23:22:00,
2013-01-11 16:32:00,0.0,-1.0,-100.00,West,270,9.0,11.0,94,-99.99,,,-99.99,,2013-01-11 23:32:00,
2013-01-11 16:42:00,0.0,-1.0,-100.00,West,270,9.0,11.0,94,-99.99,,,-99.99,,2013-01-11 23:42:00,
2013-01-11 16:53:00,0.0,-1.0,-100.00,West,270,9.0,11.0,94,-99.99,,,-99.99,,2013-01-11 23:53:00,
2013-01-11 17:00:00,0.0,-2.0,-100.00,West,275,12.0,14.0,94,-99.99,,,0.00,,2013-01-12 00:00:00,
2013-01-11 17:12:00,0.0,-2.0,-100.00,WNW,285,6.0,8.0,94,-99.99,,,0.00,,2013-01-12 00:12:00,
2013-01-11 17:22:00,0.0,-2.0,-100.00,WNW,285,6.0,8.0,94,-99.99,,,0.00,,2013-01-12 00:22:00,
2013-01-11 17:30:00,0.0,-2.0,-100.00,West,260,9.0,12.0,94,-99.99,,,0.00,,2013-01-12 00:30:00,
2013-01-11 17:32:00,0.0,-2.0,-100.00,West,275,12.0,14.0,94,-99.99,,,0.00,,2013-01-12 00:32:00,
2013-01-11 17:42:00,0.0,-2.0,-100.00,West,275,12.0,14.0,94,-99.99,,,0.00,,2013-01-12 00:42:00,
2013-01-11 17:52:00,0.0,-2.0,-100.00,West,275,12.0,14.0,94,-99.99,,,0.00,,2013-01-12 00:52:00,
2013-01-11 18:12:00,0.0,-2.0,-100.00,West,260,9.0,12.0,94,-99.99,,,0.00,,2013-01-12 01:12:00,
2013-01-11 18:22:00,0.0,-2.0,-100.00,West,260,9.0,12.0,94,-99.99,,,0.00,,2013-01-12 01:22:00,
2013-01-11 20:11:00,-1.0,-2.0,-100.00,West,265,9.0,15.0,94,-99.99,,,0.00,,2013-01-12 03:11:00,
2013-01-11 20:52:00,-1.0,-2.0,-100.00,West,265,9.0,15.0,94,-99.99,,,0.00,,2013-01-12 03:52:00,
2013-01-11 21:02:00,-1.0,-2.0,-100.00,West,265,9.0,15.0,94,-99.99,,,0.00,,2013-01-12 04:02:00,
2013-01-11 23:12:00,0.0,-2.0,-100.00,West,270,6.0,9.0,94,-99.99,,,0.00,,2013-01-12 06:12:00,
2013-01-11 23:52:00,0.0,-2.0,-100.00,West,270,6.0,9.0,94,-99.99,,,0.00,,2013-01-12 06:52:00,